sensor_id;sensor_type;location;lat;lon;timestamp;pressure;altitude;pressure_sealevel;temperature;humidity
6500;BME280;3283;52.330;9.772;2023-12-20T00:00:13;99660.06;;;2.84;100.00
6500;BME280;3283;52.330;9.772;2023-12-20T00:02:38;99656.59;;;2.83;100.00
6500;BME280;3283;52.330;9.772;2023-12-20T00:05:04;99655.69;;;2.80;100.00
6500;BME280;3283;52.330;9.772;2023-12-20T00:07:29;99660.91;;;2.75;100.00
6500;BME280;3283;52.330;9.772;2023-12-20T00:09:55;99674.75;;;2.75;100.00
6500;BME280;3283;52.330;9.772;2023-12-20T00:12:20;99670.41;;;2.70;100.00
6500;BME280;3283;52.330;9.772;2023-12-20T00:14:45;99663.44;;;2.67;100.00
6500;BME280;3283;52.330;9.772;2023-12-20T00:17:11;99659.09;;;2.59;100.00
6500;BME280;3283;52.330;9.772;2023-12-20T00:19:36;99666.84;;;2.51;100.00
6500;BME280;3283;52.330;9.772;2023-12-20T00:22:01;99669.41;;;2.46;100.00
6500;BME280;3283;52.330;9.772;2023-12-20T00:24:27;99672.03;;;2.40;100.00
6500;BME280;3283;52.330;9.772;2023-12-20T00:26:52;99670.25;;;2.38;100.00
6500;BME280;3283;52.330;9.772;2023-12-20T00:29:18;99665.06;;;2.33;100.00
6500;BME280;3283;52.330;9.772;2023-12-20T00:31:43;99675.41;;;2.32;100.00
6500;BME280;3283;52.330;9.772;2023-12-20T00:34:09;99673.69;;;2.26;100.00
6500;BME280;3283;52.330;9.772;2023-12-20T00:36:34;99679.69;;;2.24;100.00
6500;BME280;3283;52.330;9.772;2023-12-20T00:38:59;99677.09;;;2.19;100.00
6500;BME280;3283;52.330;9.772;2023-12-20T00:41:25;99677.06;;;2.14;100.00
6500;BME280;3283;52.330;9.772;2023-12-20T00:43:50;99673.56;;;2.08;100.00
6500;BME280;3283;52.330;9.772;2023-12-20T00:46:16;99683.09;;;2.10;100.00
6500;BME280;3283;52.330;9.772;2023-12-20T00:48:41;99684.81;;;2.10;100.00
6500;BME280;3283;52.330;9.772;2023-12-20T00:51:07;99683.06;;;2.07;100.00
6500;BME280;3283;52.330;9.772;2023-12-20T00:53:33;99679.56;;;2.04;100.00
6500;BME280;3283;52.330;9.772;2023-12-20T00:55:58;99682.16;;;2.02;100.00
6500;BME280;3283;52.330;9.772;2023-12-20T00:58:24;99685.63;;;1.98;100.00
6500;BME280;3283;52.330;9.772;2023-12-20T01:00:49;99685.59;;;1.97;100.00
6500;BME280;3283;52.330;9.772;2023-12-20T01:03:14;99673.47;;;1.97;100.00
6500;BME280;3283;52.330;9.772;2023-12-20T01:05:40;99663.09;;;1.92;100.00
6500;BME280;3283;52.330;9.772;2023-12-20T01:08:06;99670.00;;;1.93;100.00
6500;BME280;3283;52.330;9.772;2023-12-20T01:10:31;99667.41;;;1.90;100.00
6500;BME280;3283;52.330;9.772;2023-12-20T01:12:57;99678.63;;;1.89;100.00
6500;BME280;3283;52.330;9.772;2023-12-20T01:15:22;99676.06;;;1.91;100.00
6500;BME280;3283;52.330;9.772;2023-12-20T01:17:48;99670.84;;;1.88;100.00
6500;BME280;3283;52.330;9.772;2023-12-20T01:20:14;99669.09;;;1.87;100.00
6500;BME280;3283;52.330;9.772;2023-12-20T01:22:40;99672.53;;;1.83;100.00
6500;BME280;3283;52.330;9.772;2023-12-20T01:25:05;99675.16;;;1.84;100.00
6500;BME280;3283;52.330;9.772;2023-12-20T01:27:31;99669.97;;;1.84;100.00
6500;BME280;3283;52.330;9.772;2023-12-20T01:29:57;99676.88;;;1.87;100.00
6500;BME280;3283;52.330;9.772;2023-12-20T01:32:22;99684.72;;;1.93;100.00
6500;BME280;3283;52.330;9.772;2023-12-20T01:34:48;99679.53;;;1.95;100.00
6500;BME280;3283;52.330;9.772;2023-12-20T01:37:14;99678.66;;;1.97;100.00
6500;BME280;3283;52.330;9.772;2023-12-20T01:39:39;99674.34;;;1.91;100.00
6500;BME280;3283;52.330;9.772;2023-12-20T01:42:04;99690.81;;;1.98;100.00
6500;BME280;3283;52.330;9.772;2023-12-20T01:44:30;99690.78;;;1.95;100.00
6500;BME280;3283;52.330;9.772;2023-12-20T01:46:56;99689.00;;;1.89;100.00
6500;BME280;3283;52.330;9.772;2023-12-20T01:49:21;99691.63;;;1.91;100.00
6500;BME280;3283;52.330;9.772;2023-12-20T01:51:47;99685.56;;;1.92;100.00
6500;BME280;3283;52.330;9.772;2023-12-20T01:54:13;99685.53;;;1.86;100.00
6500;BME280;3283;52.330;9.772;2023-12-20T01:56:39;99689.81;;;1.81;100.00
6500;BME280;3283;52.330;9.772;2023-12-20T01:59:05;99690.66;;;1.78;100.00
6500;BME280;3283;52.330;9.772;2023-12-20T02:01:32;99692.41;;;1.78;100.00
6500;BME280;3283;52.330;9.772;2023-12-20T02:03:58;99684.56;;;1.75;100.00
6500;BME280;3283;52.330;9.772;2023-12-20T02:06:29;99691.50;;;1.76;100.00
6500;BME280;3283;52.330;9.772;2023-12-20T02:08:57;99690.66;;;1.77;100.00
6500;BME280;3283;52.330;9.772;2023-12-20T02:11:23;99695.84;;;1.80;100.00
6500;BME280;3283;52.330;9.772;2023-12-20T02:13:50;99686.34;;;1.79;100.00
6500;BME280;3283;52.330;9.772;2023-12-20T02:16:15;99688.84;;;1.68;100.00
6500;BME280;3283;52.330;9.772;2023-12-20T02:18:42;99688.78;;;1.62;100.00
6500;BME280;3283;52.330;9.772;2023-12-20T02:21:09;99679.25;;;1.56;100.00
6500;BME280;3283;52.330;9.772;2023-12-20T02:23:34;99669.69;;;1.51;100.00
6500;BME280;3283;52.330;9.772;2023-12-20T02:26:00;99675.69;;;1.45;100.00
6500;BME280;3283;52.330;9.772;2023-12-20T02:28:26;99663.53;;;1.38;100.00
6500;BME280;3283;52.330;9.772;2023-12-20T02:30:51;99660.06;;;1.34;100.00
6500;BME280;3283;52.330;9.772;2023-12-20T02:33:17;99655.69;;;1.27;100.00
6500;BME280;3283;52.330;9.772;2023-12-20T02:35:42;99668.59;;;1.26;100.00
6500;BME280;3283;52.330;9.772;2023-12-20T02:38:08;99665.94;;;1.20;100.00
6500;BME280;3283;52.330;9.772;2023-12-20T02:40:33;99662.47;;;1.16;100.00
6500;BME280;3283;52.330;9.772;2023-12-20T02:42:59;99664.22;;;1.16;100.00
6500;BME280;3283;52.330;9.772;2023-12-20T02:45:24;99656.38;;;1.11;100.00
6500;BME280;3283;52.330;9.772;2023-12-20T02:47:50;99663.28;;;1.07;100.00
6500;BME280;3283;52.330;9.772;2023-12-20T02:50:15;99669.31;;;1.09;100.00
6500;BME280;3283;52.330;9.772;2023-12-20T02:52:44;99665.00;;;1.10;100.00
6500;BME280;3283;52.330;9.772;2023-12-20T02:55:09;99657.22;;;1.07;100.00
6500;BME280;3283;52.330;9.772;2023-12-20T02:57:35;99658.91;;;1.03;100.00
6500;BME280;3283;52.330;9.772;2023-12-20T03:00:01;99653.69;;;0.99;100.00
6500;BME280;3283;52.330;9.772;2023-12-20T03:02:26;99654.50;;;0.96;100.00
6500;BME280;3283;52.330;9.772;2023-12-20T03:04:52;99658.81;;;0.97;100.00
6500;BME280;3283;52.330;9.772;2023-12-20T03:07:17;99653.63;;;0.96;100.00
6500;BME280;3283;52.330;9.772;2023-12-20T03:09:42;99655.41;;;1.00;100.00
6500;BME280;3283;52.330;9.772;2023-12-20T03:12:08;99645.94;;;1.00;100.00
6500;BME280;3283;52.330;9.772;2023-12-20T03:14:33;99642.47;;;1.01;100.00
6500;BME280;3283;52.330;9.772;2023-12-20T03:16:59;99635.56;;;1.02;100.00
6500;BME280;3283;52.330;9.772;2023-12-20T03:19:24;99630.31;;;0.94;100.00
6500;BME280;3283;52.330;9.772;2023-12-20T03:21:50;99636.38;;;0.96;100.00
6500;BME280;3283;52.330;9.772;2023-12-20T03:24:15;99625.16;;;0.97;100.00
6500;BME280;3283;52.330;9.772;2023-12-20T03:26:40;99625.13;;;0.94;100.00
6500;BME280;3283;52.330;9.772;2023-12-20T03:29:07;99619.97;;;0.97;100.00
6500;BME280;3283;52.330;9.772;2023-12-20T03:31:32;99616.53;;;0.97;100.00
6500;BME280;3283;52.330;9.772;2023-12-20T03:33:58;99609.59;;;0.93;100.00
6500;BME280;3283;52.330;9.772;2023-12-20T03:36:23;99606.97;;;0.91;100.00
6500;BME280;3283;52.330;9.772;2023-12-20T03:38:49;99603.50;;;0.91;100.00
6500;BME280;3283;52.330;9.772;2023-12-20T03:41:14;99605.28;;;0.95;100.00
6500;BME280;3283;52.330;9.772;2023-12-20T03:43:39;99599.34;;;1.06;100.00
6500;BME280;3283;52.330;9.772;2023-12-20T03:46:07;99603.75;;;1.17;100.00
6500;BME280;3283;52.330;9.772;2023-12-20T03:48:33;99594.31;;;1.22;100.00
6500;BME280;3283;52.330;9.772;2023-12-20T03:50:58;99596.09;;;1.29;100.00
6500;BME280;3283;52.330;9.772;2023-12-20T03:53:24;99590.94;;;1.35;100.00
6500;BME280;3283;52.330;9.772;2023-12-20T03:55:49;99589.19;;;1.32;100.00
6500;BME280;3283;52.330;9.772;2023-12-20T03:58:14;99590.03;;;1.28;100.00
6500;BME280;3283;52.330;9.772;2023-12-20T04:00:40;99593.50;;;1.29;100.00
6500;BME280;3283;52.330;9.772;2023-12-20T04:03:05;99589.13;;;1.22;100.00
6500;BME280;3283;52.330;9.772;2023-12-20T04:05:31;99592.53;;;1.19;100.00
6500;BME280;3283;52.330;9.772;2023-12-20T04:07:56;99595.13;;;1.19;100.00
6500;BME280;3283;52.330;9.772;2023-12-20T04:10:22;99582.16;;;1.13;100.00
6500;BME280;3283;52.330;9.772;2023-12-20T04:12:47;99593.38;;;1.17;100.00
6500;BME280;3283;52.330;9.772;2023-12-20T04:15:13;99590.03;;;1.28;100.00
6500;BME280;3283;52.330;9.772;2023-12-20T04:17:38;99584.00;;;1.29;100.00
6500;BME280;3283;52.330;9.772;2023-12-20T04:20:04;99582.31;;;1.37;100.00
6500;BME280;3283;52.330;9.772;2023-12-20T04:22:30;99581.44;;;1.37;100.00
6500;BME280;3283;52.330;9.772;2023-12-20T04:24:55;99590.09;;;1.36;100.00
6500;BME280;3283;52.330;9.772;2023-12-20T04:27:21;99585.78;;;1.40;100.00
6500;BME280;3283;52.330;9.772;2023-12-20T04:29:46;99586.69;;;1.42;100.00
6500;BME280;3283;52.330;9.772;2023-12-20T04:32:11;99587.56;;;1.45;100.00
6500;BME280;3283;52.330;9.772;2023-12-20T04:34:37;99583.25;;;1.46;100.00
6500;BME280;3283;52.330;9.772;2023-12-20T04:37:02;99576.31;;;1.46;100.00
6500;BME280;3283;52.330;9.772;2023-12-20T04:39:28;99579.81;;;1.50;100.00
6500;BME280;3283;52.330;9.772;2023-12-20T04:41:53;99565.13;;;1.53;100.00
6500;BME280;3283;52.330;9.772;2023-12-20T04:44:19;99563.41;;;1.54;100.00
6500;BME280;3283;52.330;9.772;2023-12-20T04:46:44;99560.00;;;1.56;100.00
6500;BME280;3283;52.330;9.772;2023-12-20T04:49:10;99556.50;;;1.51;100.00
6500;BME280;3283;52.330;9.772;2023-12-20T04:51:35;99557.41;;;1.58;100.00
6500;BME280;3283;52.330;9.772;2023-12-20T04:54:02;99566.91;;;1.57;100.00
6500;BME280;3283;52.330;9.772;2023-12-20T04:56:27;99568.63;;;1.57;100.00
6500;BME280;3283;52.330;9.772;2023-12-20T04:58:53;99563.44;;;1.55;100.00
6500;BME280;3283;52.330;9.772;2023-12-20T05:01:18;99580.72;;;1.56;100.00
6500;BME280;3283;52.330;9.772;2023-12-20T05:03:43;99574.63;;;1.53;100.00
6500;BME280;3283;52.330;9.772;2023-12-20T05:06:09;99569.50;;;1.56;100.00
6500;BME280;3283;52.330;9.772;2023-12-20T05:08:35;99556.50;;;1.54;100.00
6500;BME280;3283;52.330;9.772;2023-12-20T05:11:00;99556.53;;;1.62;100.00
6500;BME280;3283;52.330;9.772;2023-12-20T05:13:26;99558.31;;;1.68;100.00
6500;BME280;3283;52.330;9.772;2023-12-20T05:15:51;99556.63;;;1.70;100.00
6500;BME280;3283;52.330;9.772;2023-12-20T05:18:17;99554.84;;;1.62;100.00
6500;BME280;3283;52.330;9.772;2023-12-20T05:20:42;99555.75;;;1.71;100.00
6500;BME280;3283;52.330;9.772;2023-12-20T05:23:07;99560.06;;;1.72;100.00
6500;BME280;3283;52.330;9.772;2023-12-20T05:25:33;99566.16;;;1.77;100.00
6500;BME280;3283;52.330;9.772;2023-12-20T05:27:58;99556.66;;;1.80;100.00
6500;BME280;3283;52.330;9.772;2023-12-20T05:30:24;99567.94;;;1.84;100.00
6500;BME280;3283;52.330;9.772;2023-12-20T05:32:49;99561.81;;;1.70;100.00
6500;BME280;3283;52.330;9.772;2023-12-20T05:35:14;99555.72;;;1.64;100.00
6500;BME280;3283;52.330;9.772;2023-12-20T05:37:41;99553.09;;;1.61;100.00
6500;BME280;3283;52.330;9.772;2023-12-20T05:40:06;99549.63;;;1.58;100.00
6500;BME280;3283;52.330;9.772;2023-12-20T05:42:35;99557.44;;;1.65;100.00
6500;BME280;3283;52.330;9.772;2023-12-20T05:45:01;99555.72;;;1.69;100.00
6500;BME280;3283;52.330;9.772;2023-12-20T05:47:26;99554.88;;;1.70;100.00
6500;BME280;3283;52.330;9.772;2023-12-20T05:49:51;99565.25;;;1.72;100.00
6500;BME280;3283;52.330;9.772;2023-12-20T05:52:17;99563.53;;;1.72;100.00
6500;BME280;3283;52.330;9.772;2023-12-20T05:54:42;99561.81;;;1.73;100.00
6500;BME280;3283;52.330;9.772;2023-12-20T05:57:07;99567.00;;;1.73;100.00
6500;BME280;3283;52.330;9.772;2023-12-20T05:59:33;99572.19;;;1.70;100.00
6500;BME280;3283;52.330;9.772;2023-12-20T06:01:58;99557.44;;;1.69;100.00
6500;BME280;3283;52.330;9.772;2023-12-20T06:04:23;99554.84;;;1.67;100.00
6500;BME280;3283;52.330;9.772;2023-12-20T06:06:49;99561.75;;;1.65;100.00
6500;BME280;3283;52.330;9.772;2023-12-20T06:09:14;99562.63;;;1.69;100.00
6500;BME280;3283;52.330;9.772;2023-12-20T06:11:40;99566.13;;;1.72;100.00
6500;BME280;3283;52.330;9.772;2023-12-20T06:14:06;99553.16;;;1.71;100.00
6500;BME280;3283;52.330;9.772;2023-12-20T06:16:31;99559.16;;;1.63;100.00
6500;BME280;3283;52.330;9.772;2023-12-20T06:18:57;99558.25;;;1.58;100.00
6500;BME280;3283;52.330;9.772;2023-12-20T06:21:22;99559.13;;;1.56;100.00
6500;BME280;3283;52.330;9.772;2023-12-20T06:23:47;99553.97;;;1.63;100.00
6500;BME280;3283;52.330;9.772;2023-12-20T06:26:13;99553.97;;;1.65;100.00
6500;BME280;3283;52.330;9.772;2023-12-20T06:28:39;99553.97;;;1.63;100.00
6500;BME280;3283;52.330;9.772;2023-12-20T06:31:04;99560.00;;;1.58;100.00
6500;BME280;3283;52.330;9.772;2023-12-20T06:33:30;99550.53;;;1.63;100.00
6500;BME280;3283;52.330;9.772;2023-12-20T06:35:56;99549.66;;;1.65;100.00
6500;BME280;3283;52.330;9.772;2023-12-20T06:38:22;99556.63;;;1.71;100.00
6500;BME280;3283;52.330;9.772;2023-12-20T06:40:47;99558.34;;;1.75;100.00
6500;BME280;3283;52.330;9.772;2023-12-20T06:43:13;99552.34;;;1.76;100.00
6500;BME280;3283;52.330;9.772;2023-12-20T06:45:38;99552.34;;;1.78;100.00
6500;BME280;3283;52.330;9.772;2023-12-20T06:48:04;99546.25;;;1.76;100.00
6500;BME280;3283;52.330;9.772;2023-12-20T06:50:30;99553.16;;;1.71;100.00
6500;BME280;3283;52.330;9.772;2023-12-20T06:52:55;99538.41;;;1.63;100.00
6500;BME280;3283;52.330;9.772;2023-12-20T06:55:20;99547.00;;;1.53;100.00
6500;BME280;3283;52.330;9.772;2023-12-20T06:57:46;99544.34;;;1.47;100.00
6500;BME280;3283;52.330;9.772;2023-12-20T07:00:12;99541.72;;;1.38;100.00
6500;BME280;3283;52.330;9.772;2023-12-20T07:02:37;99544.31;;;1.36;100.00
6500;BME280;3283;52.330;9.772;2023-12-20T07:05:03;99545.16;;;1.34;100.00
6500;BME280;3283;52.330;9.772;2023-12-20T07:07:29;99537.38;;;1.34;100.00
6500;BME280;3283;52.330;9.772;2023-12-20T07:09:55;99537.41;;;1.38;100.00
6500;BME280;3283;52.330;9.772;2023-12-20T07:12:20;99542.63;;;1.48;100.00
6500;BME280;3283;52.330;9.772;2023-12-20T07:14:46;99547.84;;;1.49;100.00
6500;BME280;3283;52.330;9.772;2023-12-20T07:17:11;99534.88;;;1.54;100.00
6500;BME280;3283;52.330;9.772;2023-12-20T07:19:39;99534.88;;;1.49;100.00
6500;BME280;3283;52.330;9.772;2023-12-20T07:22:05;99532.25;;;1.43;100.00
6500;BME280;3283;52.330;9.772;2023-12-20T07:24:31;99514.09;;;1.42;100.00
6500;BME280;3283;52.330;9.772;2023-12-20T07:26:56;99520.09;;;1.36;100.00
6500;BME280;3283;52.330;9.772;2023-12-20T07:29:22;99533.06;;;1.37;100.00
6500;BME280;3283;52.330;9.772;2023-12-20T07:31:47;99538.25;;;1.37;100.00
6500;BME280;3283;52.330;9.772;2023-12-20T07:34:12;99539.13;;;1.38;100.00
6500;BME280;3283;52.330;9.772;2023-12-20T07:36:38;99543.53;;;1.53;100.00
6500;BME280;3283;52.330;9.772;2023-12-20T07:39:03;99541.84;;;1.58;100.00
6500;BME280;3283;52.330;9.772;2023-12-20T07:41:28;99546.19;;;1.63;100.00
6500;BME280;3283;52.330;9.772;2023-12-20T07:43:54;99530.69;;;1.70;100.00
6500;BME280;3283;52.330;9.772;2023-12-20T07:46:20;99541.88;;;1.69;100.00
6500;BME280;3283;52.330;9.772;2023-12-20T07:48:47;99548.72;;;1.50;100.00
6500;BME280;3283;52.330;9.772;2023-12-20T07:51:13;99549.53;;;1.41;100.00
6500;BME280;3283;52.330;9.772;2023-12-20T07:53:39;99530.47;;;1.36;100.00
6500;BME280;3283;52.330;9.772;2023-12-20T07:56:17;99540.69;;;1.18;100.00
6500;BME280;3283;52.330;9.772;2023-12-20T07:58:43;99537.25;;;1.17;100.00
6500;BME280;3283;52.330;9.772;2023-12-20T08:01:13;99551.09;;;1.21;100.00
6500;BME280;3283;52.330;9.772;2023-12-20T08:03:38;99538.16;;;1.25;100.00
6500;BME280;3283;52.330;9.772;2023-12-20T08:06:04;99531.28;;;1.32;100.00
6500;BME280;3283;52.330;9.772;2023-12-20T08:08:30;99533.94;;;1.38;100.00
6500;BME280;3283;52.330;9.772;2023-12-20T08:10:56;99540.03;;;1.42;100.00
6500;BME280;3283;52.330;9.772;2023-12-20T08:13:24;99544.34;;;1.44;100.00
6500;BME280;3283;52.330;9.772;2023-12-20T08:15:51;99542.63;;;1.48;100.00
6500;BME280;3283;52.330;9.772;2023-12-20T08:18:17;99535.75;;;1.51;100.00
6500;BME280;3283;52.330;9.772;2023-12-20T08:20:42;99527.97;;;1.53;100.00
6500;BME280;3283;52.330;9.772;2023-12-20T08:23:08;99530.59;;;1.56;100.00
6500;BME280;3283;52.330;9.772;2023-12-20T08:25:33;99523.69;;;1.61;100.00
6500;BME280;3283;52.330;9.772;2023-12-20T08:27:58;99521.13;;;1.65;100.00
6500;BME280;3283;52.330;9.772;2023-12-20T08:30:23;99526.31;;;1.64;100.00
6500;BME280;3283;52.330;9.772;2023-12-20T08:32:50;99523.72;;;1.65;100.00
6500;BME280;3283;52.330;9.772;2023-12-20T08:35:16;99510.78;;;1.70;100.00
6500;BME280;3283;52.330;9.772;2023-12-20T08:37:42;99516.03;;;1.79;100.00
6500;BME280;3283;52.330;9.772;2023-12-20T08:40:08;99516.88;;;1.77;100.00
6500;BME280;3283;52.330;9.772;2023-12-20T08:42:33;99516.03;;;1.81;100.00
6500;BME280;3283;52.330;9.772;2023-12-20T08:44:59;99504.78;;;1.82;100.00
6500;BME280;3283;52.330;9.772;2023-12-20T08:47:24;99511.69;;;1.80;100.00
6500;BME280;3283;52.330;9.772;2023-12-20T08:49:50;99497.84;;;1.81;100.00
6500;BME280;3283;52.330;9.772;2023-12-20T08:52:15;99490.13;;;1.91;100.00
6500;BME280;3283;52.330;9.772;2023-12-20T08:54:41;99488.44;;;2.03;100.00
6500;BME280;3283;52.330;9.772;2023-12-20T08:57:06;99493.63;;;2.00;100.00
6500;BME280;3283;52.330;9.772;2023-12-20T08:59:32;99491.91;;;1.99;100.00
6500;BME280;3283;52.330;9.772;2023-12-20T09:01:57;99489.28;;;2.03;100.00
6500;BME280;3283;52.330;9.772;2023-12-20T09:04:23;99476.34;;;2.08;100.00
6500;BME280;3283;52.330;9.772;2023-12-20T09:06:49;99494.50;;;2.08;100.00
6500;BME280;3283;52.330;9.772;2023-12-20T09:09:14;99470.31;;;2.19;100.00
6500;BME280;3283;52.330;9.772;2023-12-20T09:11:40;99468.59;;;2.22;100.00
6500;BME280;3283;52.330;9.772;2023-12-20T09:14:06;99465.09;;;2.10;100.00
6500;BME280;3283;52.330;9.772;2023-12-20T09:16:31;99465.09;;;2.07;100.00
6500;BME280;3283;52.330;9.772;2023-12-20T09:18:57;99469.47;;;2.20;100.00
6500;BME280;3283;52.330;9.772;2023-12-20T09:21:22;99448.69;;;2.19;100.00
6500;BME280;3283;52.330;9.772;2023-12-20T09:23:47;99447.84;;;2.34;100.00
6500;BME280;3283;52.330;9.772;2023-12-20T09:26:13;99452.16;;;2.39;100.00
6500;BME280;3283;52.330;9.772;2023-12-20T09:28:38;99446.13;;;2.36;100.00
6500;BME280;3283;52.330;9.772;2023-12-20T09:31:05;99446.97;;;2.38;100.00
6500;BME280;3283;52.330;9.772;2023-12-20T09:33:34;99441.78;;;2.39;100.00
6500;BME280;3283;52.330;9.772;2023-12-20T09:36:00;99440.06;;;2.41;100.00
6500;BME280;3283;52.330;9.772;2023-12-20T09:38:26;99431.44;;;2.47;100.00
6500;BME280;3283;52.330;9.772;2023-12-20T09:40:51;99427.94;;;2.65;100.00
6500;BME280;3283;52.330;9.772;2023-12-20T09:43:19;99427.94;;;2.66;100.00
6500;BME280;3283;52.330;9.772;2023-12-20T09:45:49;99438.34;;;2.60;100.00
6500;BME280;3283;52.330;9.772;2023-12-20T09:48:18;99439.22;;;2.56;100.00
6500;BME280;3283;52.330;9.772;2023-12-20T09:50:44;99443.53;;;2.51;100.00
6500;BME280;3283;52.330;9.772;2023-12-20T09:53:14;99430.56;;;2.57;100.00
6500;BME280;3283;52.330;9.772;2023-12-20T09:55:41;99434.00;;;2.59;100.00
6500;BME280;3283;52.330;9.772;2023-12-20T09:58:06;99432.28;;;2.69;100.00
6500;BME280;3283;52.330;9.772;2023-12-20T10:00:34;99423.59;;;2.74;100.00
6500;BME280;3283;52.330;9.772;2023-12-20T10:03:00;99417.56;;;2.69;100.00
6500;BME280;3283;52.330;9.772;2023-12-20T10:05:27;99421.03;;;2.70;100.00
6500;BME280;3283;52.330;9.772;2023-12-20T10:07:53;99409.75;;;2.72;100.00
6500;BME280;3283;52.330;9.772;2023-12-20T10:10:18;99408.88;;;2.80;100.00
6500;BME280;3283;52.330;9.772;2023-12-20T10:13:04;99412.34;;;2.88;100.00
6500;BME280;3283;52.330;9.772;2023-12-20T10:15:29;99414.94;;;2.86;100.00
6500;BME280;3283;52.330;9.772;2023-12-20T10:17:56;99402.84;;;2.90;100.00
6500;BME280;3283;52.330;9.772;2023-12-20T10:20:22;99398.47;;;2.87;100.00
6500;BME280;3283;52.330;9.772;2023-12-20T10:22:47;99405.41;;;2.93;100.00
6500;BME280;3283;52.330;9.772;2023-12-20T10:25:14;99404.56;;;2.97;100.00
6500;BME280;3283;52.330;9.772;2023-12-20T10:27:40;99408.03;;;2.85;100.00
6500;BME280;3283;52.330;9.772;2023-12-20T10:30:05;99399.38;;;2.79;100.00
6500;BME280;3283;52.330;9.772;2023-12-20T10:32:31;99402.84;;;2.76;100.00
6500;BME280;3283;52.330;9.772;2023-12-20T10:34:56;99393.31;;;2.84;100.00
6500;BME280;3283;52.330;9.772;2023-12-20T10:37:22;99391.56;;;2.88;100.00
6500;BME280;3283;52.330;9.772;2023-12-20T10:39:52;99395.88;;;3.10;100.00
6500;BME280;3283;52.330;9.772;2023-12-20T10:42:22;99387.19;;;3.08;100.00
6500;BME280;3283;52.330;9.772;2023-12-20T10:44:48;99393.25;;;3.01;100.00
6500;BME280;3283;52.330;9.772;2023-12-20T10:47:15;99384.63;;;3.03;100.00
6500;BME280;3283;52.330;9.772;2023-12-20T10:49:41;99402.78;;;3.02;100.00
6500;BME280;3283;52.330;9.772;2023-12-20T10:52:07;99388.94;;;2.95;100.00
6500;BME280;3283;52.330;9.772;2023-12-20T10:54:34;99385.50;;;2.73;100.00
6500;BME280;3283;52.330;9.772;2023-12-20T10:56:59;99387.25;;;2.65;100.00
6500;BME280;3283;52.330;9.772;2023-12-20T10:59:27;99385.53;;;2.69;100.00
6500;BME280;3283;52.330;9.772;2023-12-20T11:01:54;99389.88;;;2.56;100.00
6500;BME280;3283;52.330;9.772;2023-12-20T11:04:30;99385.56;;;2.55;100.00
6500;BME280;3283;52.330;9.772;2023-12-20T11:07:07;99389.00;;;2.51;100.00
6500;BME280;3283;52.330;9.772;2023-12-20T11:09:45;99385.56;;;2.61;100.00
6500;BME280;3283;52.330;9.772;2023-12-20T11:12:25;99375.97;;;2.82;100.00
6500;BME280;3283;52.330;9.772;2023-12-20T11:14:53;99380.28;;;3.01;100.00
6500;BME280;3283;52.330;9.772;2023-12-20T11:17:21;99376.78;;;3.02;100.00
6500;BME280;3283;52.330;9.772;2023-12-20T11:22:20;99374.19;;;3.08;100.00
6500;BME280;3283;52.330;9.772;2023-12-20T11:24:46;99374.22;;;2.88;100.00
6500;BME280;3283;52.330;9.772;2023-12-20T11:27:13;99369.03;;;2.91;100.00
6500;BME280;3283;52.330;9.772;2023-12-20T11:29:38;99368.22;;;2.75;100.00
6500;BME280;3283;52.330;9.772;2023-12-20T11:34:56;99359.59;;;2.55;100.00
6500;BME280;3283;52.330;9.772;2023-12-20T11:37:32;99369.97;;;2.55;100.00
6500;BME280;3283;52.330;9.772;2023-12-20T11:40:07;99364.75;;;2.38;100.00
6500;BME280;3283;52.330;9.772;2023-12-20T11:42:49;99383.78;;;2.17;100.00
6500;BME280;3283;52.330;9.772;2023-12-20T11:45:18;99392.28;;;1.52;100.00
6500;BME280;3283;52.330;9.772;2023-12-20T11:47:48;99394.00;;;1.46;100.00
6500;BME280;3283;52.330;9.772;2023-12-20T11:50:17;99403.41;;;1.27;100.00
6500;BME280;3283;52.330;9.772;2023-12-20T11:52:43;99428.38;;;1.11;100.00
6500;BME280;3283;52.330;9.772;2023-12-20T11:55:09;99433.50;;;1.03;100.00
6500;BME280;3283;52.330;9.772;2023-12-20T11:57:35;99450.69;;;0.89;100.00
6500;BME280;3283;52.330;9.772;2023-12-20T12:00:01;99431.19;;;0.27;100.00
6500;BME280;3283;52.330;9.772;2023-12-20T12:02:27;99426.78;;;0.16;100.00
6500;BME280;3283;52.330;9.772;2023-12-20T12:04:53;99433.63;;;0.12;100.00
6500;BME280;3283;52.330;9.772;2023-12-20T12:07:18;99420.50;;;-0.08;100.00
6500;BME280;3283;52.330;9.772;2023-12-20T12:09:44;99396.41;;;-0.07;100.00
6500;BME280;3283;52.330;9.772;2023-12-20T12:12:10;99387.66;;;-0.19;100.00
6500;BME280;3283;52.330;9.772;2023-12-20T12:14:37;99405.00;;;-0.08;100.00
6500;BME280;3283;52.330;9.772;2023-12-20T12:17:03;99399.66;;;-0.23;100.00
6500;BME280;3283;52.330;9.772;2023-12-20T12:19:30;99388.53;;;-0.19;100.00
6500;BME280;3283;52.330;9.772;2023-12-20T12:22:10;99386.78;;;-0.20;100.00
6500;BME280;3283;52.330;9.772;2023-12-20T12:24:39;99392.75;;;-0.24;100.00
6500;BME280;3283;52.330;9.772;2023-12-20T12:27:07;99402.31;;;-0.17;100.00
6500;BME280;3283;52.330;9.772;2023-12-20T12:29:34;99397.09;;;-0.21;100.00
6500;BME280;3283;52.330;9.772;2023-12-20T12:31:59;99398.06;;;-0.12;100.00
6500;BME280;3283;52.330;9.772;2023-12-20T12:34:27;99392.84;;;-0.15;100.00
6500;BME280;3283;52.330;9.772;2023-12-20T12:36:53;99403.28;;;-0.07;100.00
6500;BME280;3283;52.330;9.772;2023-12-20T12:39:19;99398.06;;;-0.12;100.00
6500;BME280;3283;52.330;9.772;2023-12-20T12:41:45;99396.22;;;-0.23;100.00
6500;BME280;3283;52.330;9.772;2023-12-20T12:44:10;99393.69;;;-0.20;100.00
6500;BME280;3283;52.330;9.772;2023-12-20T12:46:36;99386.66;;;-0.32;100.00
6500;BME280;3283;52.330;9.772;2023-12-20T12:49:01;99392.69;;;-0.33;100.00
6500;BME280;3283;52.330;9.772;2023-12-20T12:51:26;99386.63;;;-0.34;100.00
6500;BME280;3283;52.330;9.772;2023-12-20T12:53:53;99394.47;;;-0.26;100.00
6500;BME280;3283;52.330;9.772;2023-12-20T12:56:19;99389.25;;;-0.31;100.00
6500;BME280;3283;52.330;9.772;2023-12-20T12:58:44;99384.06;;;-0.34;100.00
6500;BME280;3283;52.330;9.772;2023-12-20T13:01:10;99378.03;;;-0.31;100.00
6500;BME280;3283;52.330;9.772;2023-12-20T13:03:36;99375.53;;;-0.22;100.00
6500;BME280;3283;52.330;9.772;2023-12-20T13:06:01;99368.75;;;-0.12;100.00
6500;BME280;3283;52.330;9.772;2023-12-20T13:08:28;99369.72;;;-0.01;100.00
6500;BME280;3283;52.330;9.772;2023-12-20T13:10:54;99366.34;;;0.06;100.00
6500;BME280;3283;52.330;9.772;2023-12-20T13:13:20;99368.97;;;0.14;100.00
6500;BME280;3283;52.330;9.772;2023-12-20T13:15:46;99363.00;;;0.21;100.00
6500;BME280;3283;52.330;9.772;2023-12-20T13:18:18;99368.28;;;0.30;100.00